Time;durP1;ratioP1;P1;durP2;ratioP2;P2;SDS_P1;SDS_P2;PMS_P1;PMS_P2;Temp;Humidity;BMP_temperature;BMP_pressure;BME280_temperature;BME280_humidity;BME280_pressure;Samples;Min_cycle;Max_cycle;Signal;HPM_P1;HPM_P2
2023/01/28 00:01:05;;;;;;;1.42;1.10;;;;;;;1.76;85.83;95596.69;5075320;28;20056;-64
2023/01/28 00:03:32;;;;;;;1.92;1.60;;;;;;;1.77;86.09;95598.38;5075439;28;20072;-61
2023/01/28 00:06:03;;;;;;;2.00;1.80;;;;;;;1.76;86.08;95599.28;5075321;28;20098;-63
2023/01/28 00:08:33;;;;;;;2.53;2.25;;;;;;;1.77;85.68;95601.81;5075284;28;20048;-62
2023/01/28 00:11:02;;;;;;;2.10;1.90;;;;;;;1.79;85.63;95606.09;5075309;28;20048;-61
2023/01/28 00:13:30;;;;;;;3.00;2.22;;;;;;;1.75;85.68;95606.16;5075230;28;20052;-63
2023/01/28 00:15:57;;;;;;;4.30;2.08;;;;;;;1.69;85.35;95605.41;5075122;28;20044;-63
2023/01/28 00:18:26;;;;;;;1.92;1.65;;;;;;;1.70;85.30;95613.13;5075000;28;20054;-63
2023/01/28 00:20:58;;;;;;;1.92;1.70;;;;;;;1.69;85.09;95611.44;5075091;28;20482;-62
2023/01/28 00:23:26;;;;;;;2.17;1.80;;;;;;;1.68;84.95;95617.44;5074892;28;20084;-63
2023/01/28 00:25:58;;;;;;;2.50;1.67;;;;;;;1.70;85.02;95620.88;5074875;28;20048;-63
2023/01/28 00:28:27;;;;;;;1.98;1.75;;;;;;;1.68;85.10;95620.03;5074665;28;20044;-64
2023/01/28 00:30:55;;;;;;;1.38;1.23;;;;;;;1.67;84.73;95623.50;5074873;28;20426;-62
2023/01/28 00:33:23;;;;;;;1.90;1.58;;;;;;;1.67;85.12;95630.38;5074765;28;20059;-63
2023/01/28 00:35:59;;;;;;;1.70;1.50;;;;;;;1.70;85.42;95627.75;5074704;28;20445;-63
2023/01/28 00:38:27;;;;;;;1.42;1.33;;;;;;;1.69;84.98;95626.91;5074623;28;20095;-63
2023/01/28 00:40:56;;;;;;;3.90;1.60;;;;;;;1.72;85.24;95633.72;5074577;28;20048;-64
2023/01/28 00:43:24;;;;;;;2.63;1.65;;;;;;;1.72;85.30;95634.56;5074495;28;20052;-63
2023/01/28 00:45:52;;;;;;;5.25;1.60;;;;;;;1.75;85.38;95638.84;5074469;28;20490;-63
2023/01/28 00:48:20;;;;;;;5.93;1.45;;;;;;;1.77;85.27;95644.81;5074408;28;20044;-63
2023/01/28 00:50:47;;;;;;;1.80;1.50;;;;;;;1.78;85.87;95643.94;5074356;28;20041;-63
2023/01/28 00:53:15;;;;;;;1.92;1.58;;;;;;;1.82;85.89;95648.16;5074347;28;20051;-63
2023/01/28 00:55:42;;;;;;;2.38;1.35;;;;;;;1.83;85.36;95646.41;5074278;28;20044;-64
2023/01/28 00:58:11;;;;;;;1.73;1.20;;;;;;;1.83;85.76;95647.28;5074308;28;20482;-63
2023/01/28 01:00:39;;;;;;;2.22;1.30;;;;;;;1.85;85.88;95644.69;5074285;28;20080;-63
2023/01/28 01:03:06;;;;;;;1.75;1.60;;;;;;;1.86;85.86;95646.38;5074099;28;20054;-62
2023/01/28 01:05:34;;;;;;;5.28;1.60;;;;;;;1.88;85.92;95645.47;5074126;28;20045;-63
2023/01/28 01:08:01;;;;;;;1.70;1.60;;;;;;;1.88;85.58;95644.63;5073861;28;20075;-64
2023/01/28 01:10:29;;;;;;;2.08;1.42;;;;;;;1.87;85.83;95645.50;5073917;28;20097;-63
2023/01/28 01:12:57;;;;;;;3.58;1.70;;;;;;;1.87;85.53;95651.50;5073794;28;20045;-63
2023/01/28 01:15:26;;;;;;;2.15;1.73;;;;;;;1.88;86.00;95652.34;5073806;28;20045;-62
2023/01/28 01:17:54;;;;;;;1.58;1.48;;;;;;;1.87;85.80;95648.91;5073848;28;20123;-63
2023/01/28 01:20:23;;;;;;;2.03;1.50;;;;;;;1.83;85.03;95651.56;5073892;28;20080;-62
2023/01/28 01:22:51;;;;;;;1.45;1.35;;;;;;;1.80;84.91;95652.50;5073704;28;20397;-62
2023/01/28 01:25:21;;;;;;;1.60;1.50;;;;;;;1.76;85.07;95654.28;5073767;28;20045;-63
2023/01/28 01:27:50;;;;;;;1.65;1.55;;;;;;;1.72;85.02;95654.38;5073515;28;20048;-62
2023/01/28 01:30:18;;;;;;;4.80;1.50;;;;;;;1.72;85.27;95650.03;5073654;28;20079;-64
2023/01/28 01:32:46;;;;;;;2.35;1.70;;;;;;;1.70;85.50;95653.53;5073605;28;20040;-63
2023/01/28 01:35:14;;;;;;;1.48;1.30;;;;;;;1.73;85.34;95654.34;5073610;28;20070;-62
2023/01/28 01:37:44;;;;;;;2.35;1.77;;;;;;;1.73;84.71;95658.63;5073487;28;20494;-63
2023/01/28 01:40:12;;;;;;;1.55;1.45;;;;;;;1.68;84.56;95657.88;5073677;28;20053;-63
2023/01/28 01:42:39;;;;;;;1.42;1.20;;;;;;;1.58;84.46;95664.91;5073353;28;20053;-61
2023/01/28 01:45:08;;;;;;;1.40;1.30;;;;;;;1.49;84.51;95665.91;5073444;28;20106;-62
2023/01/28 01:47:44;;;;;;;2.22;1.83;;;;;;;1.42;84.59;95666.88;5073329;28;20486;-62
2023/01/28 01:50:22;;;;;;;3.15;1.67;;;;;;;1.37;84.73;95660.06;5073049;28;20127;-63
2023/01/28 01:52:53;;;;;;;1.95;1.60;;;;;;;1.36;84.94;95668.66;5073282;28;20044;-63
2023/01/28 01:55:24;;;;;;;2.60;1.45;;;;;;;1.43;84.90;95677.16;5073291;28;20055;-62
2023/01/28 01:57:54;;;;;;;1.48;1.35;;;;;;;1.47;85.00;95676.22;5073207;28;20081;-63
2023/01/28 02:00:22;;;;;;;1.42;1.33;;;;;;;1.46;85.13;95668.53;5073169;28;20048;-63
2023/01/28 02:02:52;;;;;;;2.45;1.40;;;;;;;1.42;84.70;95679.75;5073047;28;20048;-63
2023/01/28 02:05:23;;;;;;;2.58;1.50;;;;;;;1.43;84.53;95674.59;5073177;28;20040;-63
2023/01/28 02:07:53;;;;;;;2.85;1.38;;;;;;;1.43;84.55;95684.03;5073081;28;20084;-64
2023/01/28 02:10:21;;;;;;;1.92;1.27;;;;;;;1.39;84.59;95678.09;5072998;28;20048;-62
2023/01/28 02:12:55;;;;;;;0.98;0.98;;;;;;;1.43;84.76;95691.78;5073079;28;20504;-64
2023/01/28 02:15:25;;;;;;;1.30;1.15;;;;;;;1.41;84.68;95675.50;5072938;28;20052;-63
2023/01/28 02:17:52;;;;;;;2.55;1.70;;;;;;;1.43;84.74;95679.75;5073016;28;20052;-63
2023/01/28 02:20:26;;;;;;;1.85;1.45;;;;;;;1.46;84.90;95687.44;5072994;28;20099;-63
2023/01/28 02:23:20;;;;;;;2.72;1.27;;;;;;;1.47;84.81;95691.69;5072822;28;20056;-63
2023/01/28 02:26:13;;;;;;;1.55;1.42;;;;;;;1.49;85.15;95692.53;5065075;28;20560;-63
2023/01/28 02:28:49;;;;;;;2.97;1.40;;;;;;;1.53;85.01;95692.50;5072655;28;20403;-62
2023/01/28 02:31:24;;;;;;;2.65;1.60;;;;;;;1.50;84.40;95688.22;5072802;28;20044;-62
2023/01/28 02:33:57;;;;;;;2.53;1.35;;;;;;;1.48;84.44;95690.00;5073017;28;20049;-61
2023/01/28 02:36:30;;;;;;;1.70;1.25;;;;;;;1.48;84.71;95692.56;5072820;28;20071;-63
2023/01/28 02:39:02;;;;;;;2.00;1.38;;;;;;;1.48;84.44;95692.56;5072868;28;20052;-62
2023/01/28 02:41:36;;;;;;;2.15;1.67;;;;;;;1.49;84.35;95699.41;5072724;28;20048;-63
2023/01/28 02:44:05;;;;;;;3.58;1.60;;;;;;;1.51;84.47;95701.09;5072713;28;20135;-63
2023/01/28 02:49:27;;;;;;;1.63;1.52;;;;;;;1.49;84.58;95695.13;5072848;28;20048;-61
2023/01/28 02:52:19;;;;;;;1.33;1.23;;;;;;;1.53;84.82;95702.81;5072584;28;20242;-62
2023/01/28 02:54:54;;;;;;;2.85;1.40;;;;;;;1.53;84.45;95705.38;5070997;28;20052;-63
2023/01/28 02:57:32;;;;;;;1.77;1.27;;;;;;;1.50;84.68;95701.97;5072616;28;20044;-63
2023/01/28 03:00:09;;;;;;;3.92;1.35;;;;;;;1.49;84.79;95699.41;5072602;28;20076;-62
2023/01/28 03:02:42;;;;;;;3.33;2.20;;;;;;;1.48;85.24;95701.13;5076191;28;20094;-64
2023/01/28 03:05:19;;;;;;;2.40;1.73;;;;;;;1.54;85.56;95705.38;5076363;28;20049;-62
2023/01/28 03:07:47;;;;;;;2.45;1.75;;;;;;;1.54;85.46;95710.53;5076310;28;20486;-62
2023/01/28 03:10:17;;;;;;;2.47;1.88;;;;;;;1.56;85.56;95713.06;5076329;28;20055;-61
2023/01/28 03:38:19;;;;;;;0.80;0.80;;;;;;;1.22;85.53;95714.41;5075956;28;20055;-63
2023/01/28 03:40:50;;;;;;;;;;;;;;;1.24;85.73;95712.66;5076118;28;20128;-63
2023/01/28 03:43:17;;;;;;;1.23;1.13;;;;;;;1.26;86.34;95713.47;5075471;28;19924;-64
2023/01/28 03:45:45;;;;;;;1.70;1.50;;;;;;;1.27;86.54;95717.78;5075501;28;20090;-62
2023/01/28 03:48:14;;;;;;;4.03;1.77;;;;;;;1.27;86.54;95717.78;5075627;28;20452;-62
2023/01/28 03:50:41;;;;;;;3.00;2.78;;;;;;;1.31;86.70;95722.00;5075577;28;20045;-63
2023/01/28 03:53:14;;;;;;;2.70;1.95;;;;;;;1.32;87.16;95726.28;5075439;28;20102;-62
2023/01/28 03:55:41;;;;;;;1.73;1.63;;;;;;;1.34;86.61;95731.41;5075363;28;20056;-63
2023/01/28 03:58:09;;;;;;;1.90;1.70;;;;;;;1.37;86.63;95726.22;5075476;28;20155;-64
2023/01/28 04:00:40;;;;;;;2.00;1.83;;;;;;;1.35;86.69;95727.97;5075353;28;20046;-62
2023/01/28 04:03:14;;;;;;;1.60;1.48;;;;;;;1.34;87.26;95731.41;5075238;28;20044;-62
2023/01/28 04:05:44;;;;;;;1.70;1.60;;;;;;;1.36;86.86;95738.25;5075315;28;20414;-62
2023/01/28 04:08:12;;;;;;;1.80;1.70;;;;;;;1.37;86.99;95741.69;5075272;28;20046;-64
2023/01/28 04:10:39;;;;;;;1.65;1.55;;;;;;;1.41;86.87;95740.75;5075187;28;20041;-64
2023/01/28 04:13:06;;;;;;;1.95;1.75;;;;;;;1.43;86.92;95748.47;5074825;28;20055;-64
2023/01/28 04:15:35;;;;;;;1.90;1.70;;;;;;;1.43;87.20;95748.47;5075168;28;20102;-63
2023/01/28 04:18:02;;;;;;;3.08;1.90;;;;;;;1.41;86.81;95751.06;5075221;28;20040;-63
2023/01/28 04:20:29;;;;;;;1.92;1.83;;;;;;;1.42;87.05;95751.94;5075130;28;20076;-63
2023/01/28 04:22:58;;;;;;;3.85;1.95;;;;;;;1.40;87.26;95746.81;5074996;28;20098;-63
2023/01/28 04:25:25;;;;;;;2.10;1.90;;;;;;;1.43;87.49;95751.91;5074924;28;20478;-63
2023/01/28 04:27:52;;;;;;;3.70;1.60;;;;;;;1.43;87.11;95746.75;5074755;28;20047;-62
2023/01/28 04:30:19;;;;;;;1.67;1.55;;;;;;;1.44;87.25;95758.75;5074940;28;20508;-62
2023/01/28 04:32:49;;;;;;;1.45;1.35;;;;;;;1.43;87.23;95757.06;5074904;28;20052;-63
2023/01/28 04:35:16;;;;;;;1.30;1.20;;;;;;;1.39;87.22;95755.41;5074731;28;20052;-63
2023/01/28 04:37:44;;;;;;;1.70;1.40;;;;;;;1.37;87.39;95760.59;5074674;28;20123;-63
2023/01/28 04:40:13;;;;;;;1.80;1.25;;;;;;;1.41;87.29;95755.41;5074671;28;20040;-63
2023/01/28 04:42:40;;;;;;;5.13;1.60;;;;;;;1.42;87.47;95764.81;5074584;28;20110;-64
2023/01/28 04:45:09;;;;;;;1.60;1.50;;;;;;;1.42;87.42;95763.09;5074331;28;20056;-63
2023/01/28 04:47:36;;;;;;;2.75;1.45;;;;;;;1.45;87.44;95767.38;5074454;28;20467;-63
2023/01/28 04:50:03;;;;;;;1.67;1.45;;;;;;;1.44;87.32;95770.81;5074513;28;20062;-63
2023/01/28 04:52:30;;;;;;;1.52;1.42;;;;;;;1.46;87.47;95769.06;5074589;28;20110;-63
2023/01/28 04:54:57;;;;;;;1.70;1.55;;;;;;;1.47;87.32;95770.75;5074419;28;20079;-63
2023/01/28 04:57:26;;;;;;;2.45;1.60;;;;;;;1.49;87.52;95774.16;5074376;28;20452;-64
2023/01/28 04:59:53;;;;;;;2.22;1.83;;;;;;;1.49;87.30;95775.03;5074226;28;20051;-62
2023/01/28 05:02:20;;;;;;;7.03;2.20;;;;;;;1.48;87.40;95780.22;5074108;28;20045;-63
2023/01/28 05:04:48;;;;;;;1.80;1.70;;;;;;;1.48;87.09;95783.63;5074095;28;20132;-63
2023/01/28 05:07:15;;;;;;;7.18;3.20;;;;;;;1.49;86.80;95794.78;5074031;28;20048;-63
2023/01/28 05:09:42;;;;;;;8.32;3.88;;;;;;;1.47;86.43;95799.09;5074097;28;20139;-63
2023/01/28 05:12:09;;;;;;;6.28;4.25;;;;;;;1.43;86.52;95793.16;5074069;28;20090;-63
2023/01/28 05:14:37;;;;;;;12.43;5.40;;;;;;;1.42;86.94;95796.63;5074036;28;20135;-63
2023/01/28 05:17:05;;;;;;;23.50;11.52;;;;;;;1.40;86.51;95798.34;5073958;28;20101;-63
2023/01/28 05:19:32;;;;;;;20.88;10.40;;;;;;;1.36;86.99;95800.09;5073997;28;20073;-63
2023/01/28 05:21:59;;;;;;;21.15;10.35;;;;;;;1.39;86.11;95809.53;5073876;28;20140;-64
2023/01/28 05:24:26;;;;;;;16.05;9.77;;;;;;;1.36;85.40;95809.59;5073019;28;20383;-63
2023/01/28 05:26:53;;;;;;;17.65;10.25;;;;;;;1.34;85.00;95813.91;5073789;28;20135;-62
2023/01/28 05:29:20;;;;;;;7.78;5.05;;;;;;;1.28;84.67;95803.66;5073440;28;20561;-63
2023/01/28 05:31:49;;;;;;;7.15;3.08;;;;;;;1.21;84.55;95808.88;5073651;28;20426;-64
2023/01/28 05:34:16;;;;;;;4.38;2.03;;;;;;;1.17;84.37;95812.38;5073571;28;20135;-63
2023/01/28 05:36:43;;;;;;;2.28;2.08;;;;;;;1.08;84.50;95815.09;5073510;28;20048;-62
2023/01/28 05:39:10;;;;;;;2.45;1.30;;;;;;;1.06;83.99;95811.66;5073424;28;20101;-62
2023/01/28 05:41:37;;;;;;;1.30;1.20;;;;;;;1.02;84.35;95813.41;5073525;28;20049;-63
2023/01/28 05:44:05;;;;;;;1.50;1.40;;;;;;;0.99;84.58;95818.59;5073378;28;20059;-63
2023/01/28 05:46:32;;;;;;;2.95;2.67;;;;;;;0.97;84.80;95821.19;5073367;28;20482;-64
2023/01/28 05:49:01;;;;;;;6.68;4.35;;;;;;;0.99;84.44;95824.63;5073297;28;20102;-62
2023/01/28 05:51:27;;;;;;;3.75;2.88;;;;;;;0.96;84.16;95828.97;5073259;28;20064;-62
2023/01/28 05:53:55;;;;;;;2.08;1.85;;;;;;;0.98;84.54;95840.09;5073274;28;20076;-62
2023/01/28 05:56:22;;;;;;;7.78;2.20;;;;;;;0.96;84.13;95834.13;5073159;28;20044;-64
2023/01/28 05:58:49;;;;;;;1.70;1.60;;;;;;;0.97;84.54;95835.81;5073182;28;20421;-63
2023/01/28 06:01:16;;;;;;;1.95;1.80;;;;;;;0.97;84.91;95841.78;5073159;28;20456;-63
2023/01/28 06:03:43;;;;;;;1.50;1.40;;;;;;;0.96;84.57;95847.84;5073030;28;20133;-63
2023/01/28 06:06:11;;;;;;;4.80;1.67;;;;;;;0.95;84.82;95846.13;5073159;28;20561;-64
2023/01/28 06:08:38;;;;;;;3.85;1.90;;;;;;;0.93;84.87;95847.03;5073213;28;20465;-62
2023/01/28 06:11:06;;;;;;;1.42;1.33;;;;;;;0.93;85.12;95852.19;5073082;28;20045;-63
2023/01/28 06:13:33;;;;;;;1.75;1.65;;;;;;;0.89;85.33;95853.91;5072989;28;20383;-64
2023/01/28 06:16:01;;;;;;;1.38;1.27;;;;;;;0.91;85.50;95866.78;5072956;28;20127;-63
2023/01/28 06:18:28;;;;;;;1.45;1.20;;;;;;;0.95;85.66;95863.31;5072985;28;20048;-63
2023/01/28 06:20:55;;;;;;;5.00;3.47;;;;;;;0.97;85.43;95866.72;5072929;28;20044;-62
2023/01/28 06:23:23;;;;;;;3.80;3.05;;;;;;;1.05;85.24;95876.94;5072958;28;20045;-62
2023/01/28 06:25:54;;;;;;;3.20;2.22;;;;;;;1.07;84.96;95877.78;5072862;28;20049;-63
2023/01/28 06:28:21;;;;;;;2.20;2.00;;;;;;;1.12;84.99;95873.44;5072604;28;20080;-62
2023/01/28 06:30:49;;;;;;;3.50;2.95;;;;;;;1.13;84.67;95880.28;5072884;28;20490;-64
2023/01/28 06:33:16;;;;;;;1.95;1.67;;;;;;;1.17;84.60;95878.53;5072825;28;20041;-63
2023/01/28 06:35:43;;;;;;;2.47;2.03;;;;;;;1.22;84.76;95880.19;5075201;28;20055;-62
2023/01/28 06:38:11;;;;;;;2.22;2.03;;;;;;;1.28;84.48;95880.97;5077015;28;20490;-63
2023/01/28 06:40:39;;;;;;;1.95;1.60;;;;;;;1.38;83.98;95877.41;5077013;28;20391;-63
2023/01/28 06:43:07;;;;;;;2.90;1.98;;;;;;;1.47;83.28;95881.59;5076869;28;20513;-62
2023/01/28 06:45:34;;;;;;;5.07;3.60;;;;;;;1.63;82.48;95879.69;5076642;28;20055;-62
2023/01/28 06:48:02;;;;;;;5.60;3.65;;;;;;;1.85;81.79;95882.84;5076722;28;20528;-62
2023/01/28 06:50:29;;;;;;;3.60;2.65;;;;;;;2.08;81.88;95881.63;5076646;28;20486;-61
2023/01/28 06:52:56;;;;;;;3.70;2.33;;;;;;;2.29;81.60;95894.25;5076702;28;20049;-63
2023/01/28 06:55:24;;;;;;;2.10;1.58;;;;;;;2.38;81.39;95889.78;5076621;28;20102;-63
2023/01/28 06:57:53;;;;;;;2.70;2.00;;;;;;;2.50;80.46;95893.06;5076539;28;20421;-63
2023/01/28 07:00:21;;;;;;;2.30;2.10;;;;;;;2.59;79.63;95897.22;5076496;28;20094;-62
2023/01/28 07:02:48;;;;;;;2.20;2.00;;;;;;;2.65;79.34;95902.28;5076511;28;20063;-63
2023/01/28 07:05:15;;;;;;;4.47;2.20;;;;;;;2.74;78.01;95906.44;5076311;28;20056;-63
2023/01/28 07:07:44;;;;;;;3.58;2.72;;;;;;;2.76;77.43;95908.13;5076318;28;20127;-62
2023/01/28 07:10:13;;;;;;;2.75;2.33;;;;;;;2.65;76.65;95910.88;5076345;28;20047;-61
2023/01/28 07:12:40;;;;;;;2.05;1.70;;;;;;;2.73;75.94;95921.09;5076228;28;20487;-63
2023/01/28 07:15:11;;;;;;;2.25;1.90;;;;;;;2.82;75.47;95914.91;5076185;28;20060;-63
2023/01/28 07:17:40;;;;;;;2.70;1.90;;;;;;;2.87;75.08;95920.84;5076173;28;20105;-63
2023/01/28 07:20:10;;;;;;;7.43;3.45;;;;;;;2.84;74.90;95912.28;5076094;28;20098;-62
2023/01/28 07:22:40;;;;;;;6.40;3.20;;;;;;;2.86;75.39;95926.06;5076072;28;20048;-62
2023/01/28 07:25:12;;;;;;;3.85;2.60;;;;;;;2.87;74.29;95930.31;5075878;28;20087;-61
2023/01/28 07:27:40;;;;;;;5.65;3.50;;;;;;;2.94;74.83;95931.94;5075909;28;20056;-63
2023/01/28 07:30:10;;;;;;;3.85;2.63;;;;;;;2.96;74.36;95937.94;5075749;28;20106;-63
2023/01/28 07:32:37;;;;;;;2.03;1.83;;;;;;;2.91;73.90;95937.13;5075903;28;20040;-64
2023/01/28 07:35:06;;;;;;;3.53;2.42;;;;;;;2.87;74.81;95936.34;5075810;28;20086;-64
2023/01/28 07:37:33;;;;;;;6.88;3.20;;;;;;;2.89;73.89;95934.59;5075748;28;20097;-63
2023/01/28 07:40:00;;;;;;;10.65;4.20;;;;;;;2.99;74.18;95945.63;5075709;28;20418;-63
2023/01/28 07:42:28;;;;;;;16.08;5.38;;;;;;;2.97;74.84;95944.78;5075748;28;20047;-64
2023/01/28 07:44:55;;;;;;;7.95;3.63;;;;;;;3.12;74.55;95950.56;5075569;28;20052;-63
2023/01/28 07:47:24;;;;;;;14.35;4.57;;;;;;;3.24;72.86;95944.31;5074924;28;20056;-63
2023/01/28 07:49:51;;;;;;;4.25;2.22;;;;;;;3.15;71.03;95950.50;5075543;28;20124;-63
2023/01/28 07:52:19;;;;;;;5.95;2.78;;;;;;;3.11;72.03;95960.06;5075457;28;20053;-62
2023/01/28 07:54:46;;;;;;;8.40;3.58;;;;;;;3.09;72.02;95959.22;5075465;28;20051;-63
2023/01/28 07:57:14;;;;;;;8.98;4.22;;;;;;;3.05;72.29;95961.91;5075310;28;20122;-64
2023/01/28 07:59:41;;;;;;;9.35;3.45;;;;;;;2.92;72.13;95956.09;5075437;28;20052;-63
2023/01/28 08:02:12;;;;;;;3.72;2.30;;;;;;;2.88;72.08;95966.47;5075288;28;20048;-62
2023/01/28 08:04:42;;;;;;;3.15;1.73;;;;;;;2.96;73.44;95958.59;5075345;28;20052;-62
2023/01/28 08:07:10;;;;;;;2.83;1.92;;;;;;;3.00;74.82;95965.41;5075270;28;20506;-63
2023/01/28 08:09:40;;;;;;;1.73;1.48;;;;;;;2.98;73.28;95972.31;5075195;28;20056;-63
2023/01/28 08:12:07;;;;;;;2.47;2.28;;;;;;;3.00;72.91;95980.91;5075127;28;20048;-62
2023/01/28 08:14:35;;;;;;;2.25;2.00;;;;;;;2.99;69.95;95986.13;5075096;28;20547;-63
2023/01/28 08:17:02;;;;;;;11.43;6.38;;;;;;;3.06;71.16;95987.72;5075169;28;20066;-63
2023/01/28 08:19:30;;;;;;;12.60;7.43;;;;;;;3.07;72.58;95992.00;5074994;28;20472;-62
2023/01/28 08:21:58;;;;;;;4.30;2.88;;;;;;;3.00;71.22;95980.91;5074946;28;20102;-62
2023/01/28 08:24:25;;;;;;;2.53;1.67;;;;;;;2.87;70.30;95988.03;5074801;28;20060;-63
2023/01/28 08:26:53;;;;;;;1.65;1.50;;;;;;;2.90;72.23;95990.56;5075062;28;20052;-63
2023/01/28 08:29:21;;;;;;;1.50;1.27;;;;;;;2.73;71.93;95989.97;5074788;28;20052;-63
2023/01/28 08:31:49;;;;;;;1.50;1.40;;;;;;;2.70;73.74;95987.41;5074867;28;20079;-62
2023/01/28 08:34:17;;;;;;;2.47;1.90;;;;;;;2.72;75.51;95996.88;5074806;28;20124;-63
2023/01/28 08:36:44;;;;;;;1.40;1.30;;;;;;;2.76;75.67;95995.94;5074795;28;20052;-62
2023/01/28 08:39:14;;;;;;;1.55;1.45;;;;;;;2.85;76.83;95994.06;5074692;28;20048;-63
2023/01/28 08:41:41;;;;;;;2.13;1.92;;;;;;;2.92;77.52;96000.84;5074603;28;20046;-63
2023/01/28 08:44:08;;;;;;;3.60;1.90;;;;;;;2.94;75.36;96001.69;5074559;28;20041;-63
2023/01/28 08:46:36;;;;;;;2.33;1.85;;;;;;;3.01;76.13;96010.22;5074524;28;20056;-63
2023/01/28 08:49:04;;;;;;;3.17;1.67;;;;;;;2.95;73.40;95999.97;5074567;28;20114;-64
2023/01/28 08:51:31;;;;;;;2.72;1.77;;;;;;;2.92;72.82;96002.59;5074446;28;20044;-62
2023/01/28 08:53:59;;;;;;;2.95;2.45;;;;;;;3.08;74.81;96004.06;5074426;28;20494;-64
2023/01/28 08:56:29;;;;;;;3.75;2.58;;;;;;;3.19;74.59;96009.03;5074310;28;20140;-63
2023/01/28 08:58:56;;;;;;;3.28;2.28;;;;;;;3.27;73.23;96008.91;5073330;28;20482;-63
2023/01/28 09:01:24;;;;;;;3.67;2.25;;;;;;;3.24;72.83;95998.59;5074346;28;20048;-64
2023/01/28 09:03:52;;;;;;;4.90;2.42;;;;;;;3.34;73.03;96007.06;5074089;28;20131;-61
2023/01/28 09:06:19;;;;;;;5.72;2.92;;;;;;;3.45;73.33;96007.72;5074035;28;20131;-63
2023/01/28 09:08:47;;;;;;;5.07;2.20;;;;;;;3.58;72.09;96020.44;5074058;28;20044;-62
2023/01/28 09:11:14;;;;;;;2.15;1.88;;;;;;;3.64;71.44;96009.94;5074002;28;20097;-63
2023/01/28 09:13:43;;;;;;;5.78;2.90;;;;;;;3.73;71.15;96014.97;5073997;28;20044;-63
2023/01/28 09:16:10;;;;;;;2.50;2.08;;;;;;;3.86;71.96;96007.84;5073927;28;20131;-64
2023/01/28 09:18:39;;;;;;;4.57;2.50;;;;;;;3.86;69.07;96012.13;5073917;28;20049;-64
2023/01/28 09:21:08;;;;;;;4.53;2.72;;;;;;;3.83;69.86;96007.88;5073880;28;20091;-62
2023/01/28 09:23:37;;;;;;;4.82;2.30;;;;;;;3.89;69.51;96009.50;5073706;28;20045;-63
2023/01/28 09:26:05;;;;;;;5.20;2.60;;;;;;;3.91;71.10;96007.72;5073721;28;20133;-64
2023/01/28 09:28:33;;;;;;;1.73;1.50;;;;;;;3.94;69.00;96001.66;5073441;28;20049;-64
2023/01/28 09:31:07;;;;;;;4.28;3.13;;;;;;;3.99;70.21;96007.56;5073729;28;20067;-62
2023/01/28 09:33:36;;;;;;;5.50;3.72;;;;;;;3.99;68.80;95998.06;5073560;28;20052;-64
2023/01/28 09:36:06;;;;;;;17.27;10.85;;;;;;;4.10;69.38;96007.34;5073549;28;20053;-62
2023/01/28 09:38:35;;;;;;;19.73;11.43;;;;;;;4.19;68.66;96001.13;5073547;28;20055;-64
2023/01/28 09:41:15;;;;;;;9.60;7.25;;;;;;;4.26;68.38;96007.88;5073567;28;20083;-63
2023/01/28 09:44:00;;;;;;;6.67;4.87;;;;;;;4.36;68.23;96000.78;5073429;28;20049;-64
2023/01/28 09:46:32;;;;;;;2.63;2.20;;;;;;;4.41;69.19;96004.09;5073333;28;20106;-64
2023/01/28 09:49:03;;;;;;;2.08;1.88;;;;;;;4.41;66.87;96006.69;5073440;28;20105;-63
2023/01/28 09:51:38;;;;;;;2.10;1.90;;;;;;;4.48;68.97;96005.66;5073317;28;20123;-64
2023/01/28 09:54:12;;;;;;;3.42;1.80;;;;;;;4.58;67.09;96011.50;5073260;28;20091;-63
2023/01/28 09:56:46;;;;;;;2.45;1.48;;;;;;;4.63;64.19;96019.16;5073237;28;20056;-63
2023/01/28 09:59:21;;;;;;;1.60;1.50;;;;;;;4.52;62.48;96012.47;5073137;28;20051;-64
2023/01/28 10:01:58;;;;;;;2.10;1.70;;;;;;;4.54;64.13;96009.84;5073271;28;20410;-63
2023/01/28 10:04:39;;;;;;;2.58;1.98;;;;;;;4.49;64.51;96011.72;5073257;28;20505;-63
2023/01/28 10:07:21;;;;;;;2.00;1.33;;;;;;;4.54;63.16;96010.72;5073286;28;20106;-63
2023/01/28 10:09:56;;;;;;;1.40;1.27;;;;;;;4.54;60.95;96012.44;5072877;28;20441;-62
2023/01/28 10:12:39;;;;;;;1.45;1.17;;;;;;;4.61;62.94;96002.81;5073029;28;20109;-61
2023/01/28 10:15:45;;;;;;;1.35;1.25;;;;;;;4.58;61.83;96005.47;5073132;28;20456;-63
2023/01/28 10:18:15;;;;;;;1.65;1.40;;;;;;;4.52;62.06;96002.13;5063269;28;20071;-62
2023/01/28 10:20:47;;;;;;;1.30;1.20;;;;;;;4.50;64.50;96003.91;5072915;28;20513;-63
2023/01/28 10:23:24;;;;;;;1.90;1.27;;;;;;;4.52;62.28;95999.53;5072998;28;20053;-62
2023/01/28 10:25:52;;;;;;;2.28;1.25;;;;;;;4.62;64.30;95992.41;5072882;28;20059;-62
2023/01/28 10:28:24;;;;;;;2.08;1.67;;;;;;;4.76;64.94;95999.00;5072584;28;20053;-62
2023/01/28 10:30:52;;;;;;;2.28;1.40;;;;;;;4.96;66.00;95987.31;5072941;28;20456;-62
2023/01/28 10:33:30;;;;;;;1.95;1.25;;;;;;;5.12;64.12;96001.59;5073000;28;20102;-63
2023/01/28 10:35:57;;;;;;;1.38;1.27;;;;;;;5.30;62.11;95996.84;5072993;28;20099;-61
2023/01/28 10:38:27;;;;;;;1.23;1.13;;;;;;;5.27;61.19;96008.13;5072944;28;20128;-62
2023/01/28 10:40:57;;;;;;;1.45;1.30;;;;;;;5.22;61.91;96010.00;5072860;28;20063;-64
2023/01/28 10:43:27;;;;;;;2.72;1.90;;;;;;;5.13;59.60;96008.50;5072849;28;20044;-61
2023/01/28 10:45:59;;;;;;;1.95;1.40;;;;;;;4.95;59.72;96007.19;5072669;28;20079;-64
2023/01/28 10:48:33;;;;;;;2.20;1.60;;;;;;;4.95;60.24;96009.78;5072737;28;20543;-64
2023/01/28 10:51:04;;;;;;;1.30;1.20;;;;;;;5.07;62.41;96006.03;5072661;28;20083;-61
2023/01/28 10:53:36;;;;;;;1.65;1.40;;;;;;;5.06;60.47;96002.59;5072730;28;20102;-62
2023/01/28 10:56:07;;;;;;;1.33;1.20;;;;;;;5.13;59.20;96005.91;5072734;28;20048;-64
2023/01/28 10:58:46;;;;;;;1.20;1.10;;;;;;;4.99;60.61;95995.84;5072695;28;20049;-62
2023/01/28 11:01:14;;;;;;;2.90;1.48;;;;;;;4.93;61.00;96003.78;5072564;28;20174;-62
2023/01/28 11:03:57;;;;;;;0.90;0.90;;;;;;;5.00;61.03;95994.13;5072535;28;20048;-62
2023/01/28 11:06:32;;;;;;;2.08;1.30;;;;;;;4.92;59.33;96002.94;5072349;28;20130;-64
2023/01/28 11:09:01;;;;;;;1.42;1.33;;;;;;;5.03;62.51;96002.66;5072486;28;20637;-62
2023/01/28 11:11:32;;;;;;;1.20;1.10;;;;;;;5.05;60.67;96005.22;5072442;28;20079;-63
2023/01/28 11:14:03;;;;;;;1.45;1.00;;;;;;;5.11;59.81;96006.81;5072463;28;20041;-64
2023/01/28 11:16:32;;;;;;;3.97;1.70;;;;;;;5.22;60.08;96002.22;5072329;28;20064;-65
2023/01/28 11:19:07;;;;;;;33.67;19.77;;;;;;;5.38;61.44;96000.06;5072376;28;20048;-63
2023/01/28 11:21:36;;;;;;;18.63;13.63;;;;;;;5.53;62.13;96001.44;5072841;28;20048;-63
2023/01/28 11:24:07;;;;;;;1.00;1.00;;;;;;;5.45;57.06;95998.19;5076044;28;20048;-62
2023/01/28 11:26:41;;;;;;;0.77;0.77;;;;;;;5.33;56.81;95994.19;5075974;28;20175;-62
2023/01/28 11:29:24;;;;;;;2.17;1.30;;;;;;;5.54;60.09;96005.72;5075848;28;20463;-62
2023/01/28 11:31:52;;;;;;;0.82;0.80;;;;;;;5.57;57.13;96007.41;5075953;28;20091;-63
2023/01/28 11:34:26;;;;;;;1.10;1.00;;;;;;;5.52;56.62;96004.91;5075971;28;20482;-62
2023/01/28 11:36:54;;;;;;;1.30;1.00;;;;;;;5.44;54.58;96002.53;5075859;28;20551;-63
2023/01/28 11:39:27;;;;;;;1.05;1.02;;;;;;;5.33;53.79;96016.66;5075948;28;20125;-62
2023/01/28 11:41:55;;;;;;;1.60;1.50;;;;;;;5.37;57.18;96015.69;5075702;28;20045;-64
2023/01/28 11:44:26;;;;;;;1.55;1.02;;;;;;;5.36;54.26;96012.22;5075893;28;20048;-64
2023/01/28 11:47:09;;;;;;;0.77;0.77;;;;;;;5.16;54.36;96007.56;5075737;28;20064;-62
2023/01/28 11:49:57;;;;;;;1.00;0.90;;;;;;;5.07;54.82;96008.63;5075657;28;20071;-62
2023/01/28 11:52:37;;;;;;;0.90;0.90;;;;;;;4.96;55.14;96014.06;5075632;28;20048;-62
2023/01/28 11:55:22;;;;;;;1.15;1.05;;;;;;;5.01;54.20;96008.78;5075493;28;20114;-64
2023/01/28 11:58:03;;;;;;;1.00;1.00;;;;;;;5.10;57.59;96007.69;5075524;28;20075;-63
2023/01/28 12:00:44;;;;;;;0.70;0.70;;;;;;;5.16;53.85;96012.75;5075867;28;20131;-64
2023/01/28 12:03:34;;;;;;;1.27;0.93;;;;;;;5.08;54.03;96006.91;5075508;28;20540;-65
2023/01/28 12:06:25;;;;;;;1.03;0.97;;;;;;;4.89;54.17;96009.94;5075298;28;20048;-64
2023/01/28 12:09:09;;;;;;;0.90;0.90;;;;;;;4.94;56.73;96008.09;5075431;28;20088;-64
2023/01/28 12:14:42;;;;;;;0.70;0.70;;;;;;;5.06;54.75;96015.56;5075309;28;20165;-64
2023/01/28 12:17:23;;;;;;;0.90;0.90;;;;;;;5.07;53.19;96021.59;5075196;28;20506;-65
2023/01/28 12:20:05;;;;;;;1.00;1.00;;;;;;;4.97;53.16;96018.38;5075051;28;20514;-64
2023/01/28 12:22:50;;;;;;;0.77;0.77;;;;;;;4.99;53.88;96026.09;5075088;28;20048;-63
2023/01/28 12:25:27;;;;;;;1.20;1.08;;;;;;;5.09;55.61;96026.75;5075181;28;20070;-63
2023/01/28 12:28:08;;;;;;;1.73;1.52;;;;;;;5.15;56.11;96024.84;5074661;28;20055;-64